sensor_id;sensor_type;location;lat;lon;timestamp;temperature;humidity
23532;DHT22;11943;52.270;20.978;2022-09-16T00:02:24;12.50;99.90
23532;DHT22;11943;52.270;20.978;2022-09-16T00:04:49;12.50;99.90
23532;DHT22;11943;52.270;20.978;2022-09-16T00:07:15;12.60;99.90
23532;DHT22;11943;52.270;20.978;2022-09-16T00:09:40;12.60;99.90
23532;DHT22;11943;52.270;20.978;2022-09-16T00:12:06;12.60;99.90
23532;DHT22;11943;52.270;20.978;2022-09-16T00:14:32;12.70;99.90
23532;DHT22;11943;52.270;20.978;2022-09-16T00:16:57;12.60;99.90
23532;DHT22;11943;52.270;20.978;2022-09-16T00:19:23;12.70;99.90
23532;DHT22;11943;52.270;20.978;2022-09-16T00:21:48;12.70;99.90
23532;DHT22;11943;52.270;20.978;2022-09-16T00:24:14;12.70;99.90
23532;DHT22;11943;52.270;20.978;2022-09-16T00:26:41;12.70;99.90
23532;DHT22;11943;52.270;20.978;2022-09-16T00:29:07;12.60;99.90
23532;DHT22;11943;52.270;20.978;2022-09-16T00:31:32;12.60;99.90
23532;DHT22;11943;52.270;20.978;2022-09-16T00:33:58;12.60;99.90
23532;DHT22;11943;52.270;20.978;2022-09-16T00:36:23;12.60;99.90
23532;DHT22;11943;52.270;20.978;2022-09-16T00:38:50;12.50;99.90
23532;DHT22;11943;52.270;20.978;2022-09-16T00:41:17;12.40;99.90
23532;DHT22;11943;52.270;20.978;2022-09-16T00:43:50;12.50;99.90
23532;DHT22;11943;52.270;20.978;2022-09-16T00:46:18;12.50;99.90
23532;DHT22;11943;52.270;20.978;2022-09-16T00:48:44;12.50;99.90
23532;DHT22;11943;52.270;20.978;2022-09-16T00:51:10;12.50;99.90
23532;DHT22;11943;52.270;20.978;2022-09-16T00:53:37;12.50;99.90
23532;DHT22;11943;52.270;20.978;2022-09-16T00:56:05;12.50;99.90
23532;DHT22;11943;52.270;20.978;2022-09-16T01:00:56;12.50;99.90
23532;DHT22;11943;52.270;20.978;2022-09-16T01:03:22;12.50;99.90
23532;DHT22;11943;52.270;20.978;2022-09-16T01:05:48;12.50;99.90
23532;DHT22;11943;52.270;20.978;2022-09-16T01:08:13;12.50;99.90
23532;DHT22;11943;52.270;20.978;2022-09-16T01:10:39;12.50;99.90
23532;DHT22;11943;52.270;20.978;2022-09-16T01:13:06;12.60;99.90
23532;DHT22;11943;52.270;20.978;2022-09-16T01:15:40;12.60;99.90
23532;DHT22;11943;52.270;20.978;2022-09-16T01:18:22;12.60;99.90
23532;DHT22;11943;52.270;20.978;2022-09-16T01:25:48;12.60;99.90
23532;DHT22;11943;52.270;20.978;2022-09-16T01:28:26;12.50;99.90
23532;DHT22;11943;52.270;20.978;2022-09-16T01:36:27;12.40;99.90
23532;DHT22;11943;52.270;20.978;2022-09-16T01:44:22;12.40;99.90
23532;DHT22;11943;52.270;20.978;2022-09-16T01:47:04;12.20;99.90
23532;DHT22;11943;52.270;20.978;2022-09-16T01:49:37;12.20;99.90
23532;DHT22;11943;52.270;20.978;2022-09-16T01:55:00;12.30;99.90
23532;DHT22;11943;52.270;20.978;2022-09-16T01:57:33;12.40;99.90
23532;DHT22;11943;52.270;20.978;2022-09-16T02:00:04;12.30;99.90
23532;DHT22;11943;52.270;20.978;2022-09-16T02:02:35;12.40;99.90
23532;DHT22;11943;52.270;20.978;2022-09-16T02:05:03;12.40;99.90
23532;DHT22;11943;52.270;20.978;2022-09-16T02:07:30;12.40;99.90
23532;DHT22;11943;52.270;20.978;2022-09-16T02:09:59;12.50;99.90
23532;DHT22;11943;52.270;20.978;2022-09-16T02:12:26;12.50;99.90
23532;DHT22;11943;52.270;20.978;2022-09-16T02:14:54;12.50;99.90
23532;DHT22;11943;52.270;20.978;2022-09-16T02:17:22;12.60;99.90
23532;DHT22;11943;52.270;20.978;2022-09-16T02:19:50;12.50;99.90
23532;DHT22;11943;52.270;20.978;2022-09-16T02:22:18;12.50;99.90
23532;DHT22;11943;52.270;20.978;2022-09-16T02:24:47;12.50;99.90
23532;DHT22;11943;52.270;20.978;2022-09-16T02:27:16;12.50;99.90
23532;DHT22;11943;52.270;20.978;2022-09-16T02:29:44;12.50;99.90
23532;DHT22;11943;52.270;20.978;2022-09-16T02:32:10;12.50;99.90
23532;DHT22;11943;52.270;20.978;2022-09-16T02:34:38;12.40;99.90
23532;DHT22;11943;52.270;20.978;2022-09-16T02:37:12;12.40;99.90
23532;DHT22;11943;52.270;20.978;2022-09-16T02:39:39;12.40;99.90
23532;DHT22;11943;52.270;20.978;2022-09-16T02:42:07;12.30;99.90
23532;DHT22;11943;52.270;20.978;2022-09-16T02:44:33;12.30;99.90
23532;DHT22;11943;52.270;20.978;2022-09-16T02:52:22;12.30;99.90
23532;DHT22;11943;52.270;20.978;2022-09-16T02:54:51;12.30;99.90
23532;DHT22;11943;52.270;20.978;2022-09-16T02:57:17;12.40;99.90
23532;DHT22;11943;52.270;20.978;2022-09-16T02:59:43;12.30;99.90
23532;DHT22;11943;52.270;20.978;2022-09-16T03:02:09;12.40;99.90
23532;DHT22;11943;52.270;20.978;2022-09-16T03:04:34;12.30;99.90
23532;DHT22;11943;52.270;20.978;2022-09-16T03:07:01;12.30;99.90
23532;DHT22;11943;52.270;20.978;2022-09-16T03:09:27;12.40;99.90
23532;DHT22;11943;52.270;20.978;2022-09-16T03:12:09;12.40;99.90
23532;DHT22;11943;52.270;20.978;2022-09-16T03:22:49;12.20;99.90
23532;DHT22;11943;52.270;20.978;2022-09-16T03:25:31;12.10;99.90
23532;DHT22;11943;52.270;20.978;2022-09-16T03:33:22;11.90;99.90
23532;DHT22;11943;52.270;20.978;2022-09-16T03:35:48;11.90;99.90
23532;DHT22;11943;52.270;20.978;2022-09-16T03:38:14;11.90;99.90
23532;DHT22;11943;52.270;20.978;2022-09-16T03:40:41;11.80;99.90
23532;DHT22;11943;52.270;20.978;2022-09-16T03:43:10;11.80;99.90
23532;DHT22;11943;52.270;20.978;2022-09-16T03:45:36;11.80;99.90
23532;DHT22;11943;52.270;20.978;2022-09-16T03:48:01;11.70;99.90
23532;DHT22;11943;52.270;20.978;2022-09-16T03:50:27;11.70;99.90
23532;DHT22;11943;52.270;20.978;2022-09-16T03:52:52;11.70;99.90
23532;DHT22;11943;52.270;20.978;2022-09-16T03:55:18;11.80;99.90
23532;DHT22;11943;52.270;20.978;2022-09-16T03:57:43;11.70;99.90
23532;DHT22;11943;52.270;20.978;2022-09-16T04:00:09;11.80;99.90
23532;DHT22;11943;52.270;20.978;2022-09-16T04:02:35;11.70;99.90
23532;DHT22;11943;52.270;20.978;2022-09-16T04:05:01;11.60;99.90
23532;DHT22;11943;52.270;20.978;2022-09-16T04:07:26;11.60;99.90
23532;DHT22;11943;52.270;20.978;2022-09-16T04:09:52;11.60;99.90
23532;DHT22;11943;52.270;20.978;2022-09-16T04:12:17;11.60;99.90
23532;DHT22;11943;52.270;20.978;2022-09-16T04:14:43;11.60;99.90
23532;DHT22;11943;52.270;20.978;2022-09-16T04:17:08;11.60;99.90
23532;DHT22;11943;52.270;20.978;2022-09-16T04:19:34;11.60;99.90
23532;DHT22;11943;52.270;20.978;2022-09-16T04:21:59;11.60;99.90
23532;DHT22;11943;52.270;20.978;2022-09-16T04:24:25;11.60;99.90
23532;DHT22;11943;52.270;20.978;2022-09-16T04:26:50;11.60;99.90
23532;DHT22;11943;52.270;20.978;2022-09-16T04:29:16;11.60;99.90
23532;DHT22;11943;52.270;20.978;2022-09-16T04:31:41;11.60;99.90
23532;DHT22;11943;52.270;20.978;2022-09-16T04:34:07;11.50;99.90
23532;DHT22;11943;52.270;20.978;2022-09-16T04:36:36;11.60;99.90
23532;DHT22;11943;52.270;20.978;2022-09-16T04:39:02;11.70;99.90
23532;DHT22;11943;52.270;20.978;2022-09-16T04:41:27;11.60;99.90
23532;DHT22;11943;52.270;20.978;2022-09-16T04:43:54;11.60;99.90
23532;DHT22;11943;52.270;20.978;2022-09-16T04:46:23;11.60;99.90
23532;DHT22;11943;52.270;20.978;2022-09-16T04:48:48;11.60;99.90
23532;DHT22;11943;52.270;20.978;2022-09-16T04:51:14;11.60;99.90
23532;DHT22;11943;52.270;20.978;2022-09-16T04:53:39;11.60;99.90
23532;DHT22;11943;52.270;20.978;2022-09-16T04:56:07;11.70;99.90
23532;DHT22;11943;52.270;20.978;2022-09-16T04:58:33;11.70;99.90
23532;DHT22;11943;52.270;20.978;2022-09-16T05:01:02;11.70;99.90
23532;DHT22;11943;52.270;20.978;2022-09-16T05:03:28;11.60;99.90
23532;DHT22;11943;52.270;20.978;2022-09-16T05:05:53;11.60;99.90
23532;DHT22;11943;52.270;20.978;2022-09-16T05:08:18;11.60;99.90
23532;DHT22;11943;52.270;20.978;2022-09-16T05:10:44;11.60;99.90
23532;DHT22;11943;52.270;20.978;2022-09-16T05:13:10;11.70;99.90
23532;DHT22;11943;52.270;20.978;2022-09-16T05:15:36;11.70;99.90
23532;DHT22;11943;52.270;20.978;2022-09-16T05:18:01;11.80;99.90
23532;DHT22;11943;52.270;20.978;2022-09-16T05:20:27;11.80;99.90
23532;DHT22;11943;52.270;20.978;2022-09-16T05:22:52;11.90;99.90
23532;DHT22;11943;52.270;20.978;2022-09-16T05:25:17;12.10;99.90
23532;DHT22;11943;52.270;20.978;2022-09-16T05:27:43;12.30;99.90
23532;DHT22;11943;52.270;20.978;2022-09-16T05:30:09;12.50;99.90
23532;DHT22;11943;52.270;20.978;2022-09-16T05:32:34;12.70;99.90
23532;DHT22;11943;52.270;20.978;2022-09-16T05:35:00;13.00;99.90
23532;DHT22;11943;52.270;20.978;2022-09-16T05:37:25;13.00;99.90
23532;DHT22;11943;52.270;20.978;2022-09-16T05:39:51;13.10;99.90
23532;DHT22;11943;52.270;20.978;2022-09-16T05:42:16;13.00;99.90
23532;DHT22;11943;52.270;20.978;2022-09-16T05:44:42;13.00;99.90
23532;DHT22;11943;52.270;20.978;2022-09-16T05:47:07;12.90;99.90
23532;DHT22;11943;52.270;20.978;2022-09-16T05:49:32;12.90;99.90
23532;DHT22;11943;52.270;20.978;2022-09-16T05:51:58;12.70;99.90
23532;DHT22;11943;52.270;20.978;2022-09-16T05:54:23;12.60;99.90
23532;DHT22;11943;52.270;20.978;2022-09-16T05:56:49;12.60;99.90
23532;DHT22;11943;52.270;20.978;2022-09-16T05:59:15;12.50;99.90
23532;DHT22;11943;52.270;20.978;2022-09-16T06:01:41;12.60;99.90
23532;DHT22;11943;52.270;20.978;2022-09-16T06:04:08;12.60;99.90
23532;DHT22;11943;52.270;20.978;2022-09-16T06:06:35;12.60;99.90
23532;DHT22;11943;52.270;20.978;2022-09-16T06:09:06;12.60;99.90
23532;DHT22;11943;52.270;20.978;2022-09-16T06:11:35;12.60;99.90
23532;DHT22;11943;52.270;20.978;2022-09-16T06:14:00;12.70;99.90
23532;DHT22;11943;52.270;20.978;2022-09-16T06:16:27;12.70;99.90
23532;DHT22;11943;52.270;20.978;2022-09-16T06:18:53;12.70;99.90
23532;DHT22;11943;52.270;20.978;2022-09-16T06:21:18;12.60;99.90
23532;DHT22;11943;52.270;20.978;2022-09-16T06:23:44;12.60;99.90
23532;DHT22;11943;52.270;20.978;2022-09-16T06:26:11;12.60;99.90
23532;DHT22;11943;52.270;20.978;2022-09-16T06:28:37;12.70;99.90
23532;DHT22;11943;52.270;20.978;2022-09-16T06:31:07;12.70;99.90
23532;DHT22;11943;52.270;20.978;2022-09-16T06:33:33;12.90;99.90
23532;DHT22;11943;52.270;20.978;2022-09-16T06:36:03;13.00;99.90
23532;DHT22;11943;52.270;20.978;2022-09-16T06:38:28;12.80;99.90
23532;DHT22;11943;52.270;20.978;2022-09-16T06:40:56;12.80;99.90
23532;DHT22;11943;52.270;20.978;2022-09-16T06:43:22;12.90;99.90
23532;DHT22;11943;52.270;20.978;2022-09-16T06:45:47;12.90;99.90
23532;DHT22;11943;52.270;20.978;2022-09-16T06:48:13;13.20;99.90
23532;DHT22;11943;52.270;20.978;2022-09-16T06:50:38;13.30;99.90
23532;DHT22;11943;52.270;20.978;2022-09-16T06:53:04;13.30;99.90
23532;DHT22;11943;52.270;20.978;2022-09-16T06:55:29;13.40;99.90
23532;DHT22;11943;52.270;20.978;2022-09-16T06:57:55;13.40;99.90
23532;DHT22;11943;52.270;20.978;2022-09-16T07:00:21;13.40;99.90
23532;DHT22;11943;52.270;20.978;2022-09-16T07:02:46;13.30;99.90
23532;DHT22;11943;52.270;20.978;2022-09-16T07:05:12;13.40;99.90
23532;DHT22;11943;52.270;20.978;2022-09-16T07:07:37;13.40;99.90
23532;DHT22;11943;52.270;20.978;2022-09-16T07:10:04;13.50;99.90
23532;DHT22;11943;52.270;20.978;2022-09-16T07:12:30;13.40;99.90
23532;DHT22;11943;52.270;20.978;2022-09-16T07:14:55;13.60;99.90
23532;DHT22;11943;52.270;20.978;2022-09-16T07:17:21;13.80;99.90
23532;DHT22;11943;52.270;20.978;2022-09-16T07:19:51;13.90;99.90
23532;DHT22;11943;52.270;20.978;2022-09-16T07:22:17;14.50;99.90
23532;DHT22;11943;52.270;20.978;2022-09-16T07:24:42;14.00;99.90
23532;DHT22;11943;52.270;20.978;2022-09-16T07:27:08;14.20;99.90
23532;DHT22;11943;52.270;20.978;2022-09-16T07:29:33;14.30;99.90
23532;DHT22;11943;52.270;20.978;2022-09-16T07:31:59;14.30;99.90
23532;DHT22;11943;52.270;20.978;2022-09-16T07:34:24;14.60;99.90
23532;DHT22;11943;52.270;20.978;2022-09-16T07:36:50;14.70;99.90
23532;DHT22;11943;52.270;20.978;2022-09-16T07:39:16;14.60;99.90
23532;DHT22;11943;52.270;20.978;2022-09-16T07:41:42;14.70;99.90
23532;DHT22;11943;52.270;20.978;2022-09-16T07:44:11;14.70;99.90
23532;DHT22;11943;52.270;20.978;2022-09-16T07:46:37;14.70;99.90
23532;DHT22;11943;52.270;20.978;2022-09-16T07:49:04;14.70;99.90
23532;DHT22;11943;52.270;20.978;2022-09-16T07:51:30;14.90;99.90
23532;DHT22;11943;52.270;20.978;2022-09-16T07:53:59;15.30;99.90
23532;DHT22;11943;52.270;20.978;2022-09-16T07:56:27;15.50;99.90
23532;DHT22;11943;52.270;20.978;2022-09-16T07:58:53;15.60;99.90
23532;DHT22;11943;52.270;20.978;2022-09-16T08:01:19;15.80;99.90
23532;DHT22;11943;52.270;20.978;2022-09-16T08:03:45;15.60;99.90
23532;DHT22;11943;52.270;20.978;2022-09-16T08:06:12;15.40;99.90
23532;DHT22;11943;52.270;20.978;2022-09-16T08:08:38;15.40;99.90
23532;DHT22;11943;52.270;20.978;2022-09-16T08:11:05;15.30;99.90
23532;DHT22;11943;52.270;20.978;2022-09-16T08:13:31;15.40;99.90
23532;DHT22;11943;52.270;20.978;2022-09-16T08:16:01;15.60;99.90
23532;DHT22;11943;52.270;20.978;2022-09-16T08:18:26;15.60;99.90
23532;DHT22;11943;52.270;20.978;2022-09-16T08:20:52;15.80;99.90
23532;DHT22;11943;52.270;20.978;2022-09-16T08:23:17;15.70;99.90
23532;DHT22;11943;52.270;20.978;2022-09-16T08:25:43;16.00;99.70
23532;DHT22;11943;52.270;20.978;2022-09-16T08:28:18;16.00;98.40
23532;DHT22;11943;52.270;20.978;2022-09-16T08:30:46;16.10;96.90
23532;DHT22;11943;52.270;20.978;2022-09-16T08:33:12;16.00;97.50
23532;DHT22;11943;52.270;20.978;2022-09-16T08:35:37;16.30;96.80
23532;DHT22;11943;52.270;20.978;2022-09-16T08:38:03;16.50;96.30
23532;DHT22;11943;52.270;20.978;2022-09-16T08:40:30;16.60;93.60
23532;DHT22;11943;52.270;20.978;2022-09-16T08:43:13;16.20;93.70
23532;DHT22;11943;52.270;20.978;2022-09-16T08:45:43;16.00;93.50
23532;DHT22;11943;52.270;20.978;2022-09-16T08:50:43;15.60;94.20
23532;DHT22;11943;52.270;20.978;2022-09-16T08:53:16;15.60;94.90
23532;DHT22;11943;52.270;20.978;2022-09-16T08:55:47;15.70;95.20
23532;DHT22;11943;52.270;20.978;2022-09-16T09:00:41;15.80;96.60
23532;DHT22;11943;52.270;20.978;2022-09-16T09:03:15;15.80;94.70
23532;DHT22;11943;52.270;20.978;2022-09-16T09:05:49;16.00;94.60
23532;DHT22;11943;52.270;20.978;2022-09-16T09:11:06;16.10;94.30
23532;DHT22;11943;52.270;20.978;2022-09-16T09:13:44;16.20;92.70
23532;DHT22;11943;52.270;20.978;2022-09-16T09:16:15;16.10;91.80
23532;DHT22;11943;52.270;20.978;2022-09-16T09:18:49;16.00;92.50
23532;DHT22;11943;52.270;20.978;2022-09-16T09:23:52;16.60;91.30
23532;DHT22;11943;52.270;20.978;2022-09-16T09:26:27;16.40;89.80
23532;DHT22;11943;52.270;20.978;2022-09-16T09:33:59;16.10;91.80
23532;DHT22;11943;52.270;20.978;2022-09-16T09:39:06;16.30;91.30
23532;DHT22;11943;52.270;20.978;2022-09-16T09:41:42;16.60;90.90
23532;DHT22;11943;52.270;20.978;2022-09-16T09:46:53;16.60;88.20
23532;DHT22;11943;52.270;20.978;2022-09-16T10:17:18;16.50;89.80
23532;DHT22;11943;52.270;20.978;2022-09-16T10:19:55;16.70;90.50
23532;DHT22;11943;52.270;20.978;2022-09-16T10:22:25;16.40;90.60
23532;DHT22;11943;52.270;20.978;2022-09-16T10:24:58;16.20;91.00
23532;DHT22;11943;52.270;20.978;2022-09-16T10:27:25;15.70;92.30
23532;DHT22;11943;52.270;20.978;2022-09-16T10:32:48;16.40;92.30
23532;DHT22;11943;52.270;20.978;2022-09-16T10:35:16;16.40;91.50
23532;DHT22;11943;52.270;20.978;2022-09-16T10:37:46;16.20;91.70
23532;DHT22;11943;52.270;20.978;2022-09-16T10:40:14;16.10;92.80
23532;DHT22;11943;52.270;20.978;2022-09-16T10:42:44;16.00;93.70
23532;DHT22;11943;52.270;20.978;2022-09-16T10:45:24;15.90;93.90
23532;DHT22;11943;52.270;20.978;2022-09-16T10:47:53;15.70;95.30
23532;DHT22;11943;52.270;20.978;2022-09-16T10:50:19;15.10;95.70
23532;DHT22;11943;52.270;20.978;2022-09-16T10:52:45;15.60;95.20
23532;DHT22;11943;52.270;20.978;2022-09-16T10:55:19;15.70;95.50
23532;DHT22;11943;52.270;20.978;2022-09-16T10:57:45;16.00;94.40
23532;DHT22;11943;52.270;20.978;2022-09-16T11:15:38;16.70;86.10
23532;DHT22;11943;52.270;20.978;2022-09-16T11:30:57;17.50;81.40
23532;DHT22;11943;52.270;20.978;2022-09-16T11:33:28;17.60;79.30
23532;DHT22;11943;52.270;20.978;2022-09-16T11:41:09;17.60;77.40
23532;DHT22;11943;52.270;20.978;2022-09-16T12:01:21;17.60;72.90
23532;DHT22;11943;52.270;20.978;2022-09-16T12:03:52;17.90;72.40
23532;DHT22;11943;52.270;20.978;2022-09-16T12:06:20;18.00;70.80
23532;DHT22;11943;52.270;20.978;2022-09-16T12:08:52;17.50;72.80
23532;DHT22;11943;52.270;20.978;2022-09-16T12:11:20;17.10;73.70
23532;DHT22;11943;52.270;20.978;2022-09-16T12:13:51;16.90;75.10
23532;DHT22;11943;52.270;20.978;2022-09-16T12:19:20;17.20;77.30
23532;DHT22;11943;52.270;20.978;2022-09-16T12:21:50;17.80;73.40
23532;DHT22;11943;52.270;20.978;2022-09-16T12:32:13;17.50;71.60
23532;DHT22;11943;52.270;20.978;2022-09-16T12:34:42;17.80;72.50
23532;DHT22;11943;52.270;20.978;2022-09-16T12:39:34;18.10;68.90
23532;DHT22;11943;52.270;20.978;2022-09-16T12:45:00;18.10;69.80
23532;DHT22;11943;52.270;20.978;2022-09-16T12:52:32;17.50;73.30
23532;DHT22;11943;52.270;20.978;2022-09-16T12:55:22;17.80;73.20
23532;DHT22;11943;52.270;20.978;2022-09-16T13:01:01;18.00;71.20
23532;DHT22;11943;52.270;20.978;2022-09-16T13:03:18;18.00;72.30
23532;DHT22;11943;52.270;20.978;2022-09-16T13:05:45;18.00;71.20
23532;DHT22;11943;52.270;20.978;2022-09-16T13:08:25;17.80;71.60
23532;DHT22;11943;52.270;20.978;2022-09-16T13:11:00;17.70;72.90
23532;DHT22;11943;52.270;20.978;2022-09-16T13:13:31;17.70;72.80
23532;DHT22;11943;52.270;20.978;2022-09-16T13:15:59;17.80;73.80
23532;DHT22;11943;52.270;20.978;2022-09-16T13:18:36;17.90;71.40
23532;DHT22;11943;52.270;20.978;2022-09-16T13:21:06;17.80;69.10
23532;DHT22;11943;52.270;20.978;2022-09-16T13:23:39;17.80;69.80
23532;DHT22;11943;52.270;20.978;2022-09-16T13:26:06;17.90;70.00
23532;DHT22;11943;52.270;20.978;2022-09-16T13:33:35;18.00;69.60
23532;DHT22;11943;52.270;20.978;2022-09-16T13:36:14;19.00;72.80
23532;DHT22;11943;52.270;20.978;2022-09-16T13:38:42;18.00;68.70
23532;DHT22;11943;52.270;20.978;2022-09-16T13:41:09;18.10;68.20
23532;DHT22;11943;52.270;20.978;2022-09-16T13:43:36;18.10;66.60
23532;DHT22;11943;52.270;20.978;2022-09-16T13:46:03;18.20;67.30
23532;DHT22;11943;52.270;20.978;2022-09-16T13:48:32;18.30;66.20
23532;DHT22;11943;52.270;20.978;2022-09-16T13:50:59;18.20;66.20
23532;DHT22;11943;52.270;20.978;2022-09-16T13:53:38;18.20;66.70
23532;DHT22;11943;52.270;20.978;2022-09-16T13:56:21;18.10;67.70
23532;DHT22;11943;52.270;20.978;2022-09-16T14:01:36;18.10;70.50
23532;DHT22;11943;52.270;20.978;2022-09-16T14:04:11;18.00;67.90
23532;DHT22;11943;52.270;20.978;2022-09-16T14:11:44;17.10;69.90
23532;DHT22;11943;52.270;20.978;2022-09-16T14:14:13;17.20;70.90
23532;DHT22;11943;52.270;20.978;2022-09-16T14:16:41;17.40;69.50
23532;DHT22;11943;52.270;20.978;2022-09-16T14:19:26;17.50;68.30
23532;DHT22;11943;52.270;20.978;2022-09-16T14:24:35;17.70;69.10
23532;DHT22;11943;52.270;20.978;2022-09-16T14:27:01;17.60;69.40
23532;DHT22;11943;52.270;20.978;2022-09-16T14:29:27;17.50;70.40
23532;DHT22;11943;52.270;20.978;2022-09-16T14:31:53;17.40;71.20
23532;DHT22;11943;52.270;20.978;2022-09-16T14:36:50;17.30;70.30
23532;DHT22;11943;52.270;20.978;2022-09-16T14:39:17;17.30;70.80
23532;DHT22;11943;52.270;20.978;2022-09-16T14:46:40;17.50;69.80
23532;DHT22;11943;52.270;20.978;2022-09-16T14:49:07;17.40;70.10
23532;DHT22;11943;52.270;20.978;2022-09-16T14:51:33;17.40;70.50
23532;DHT22;11943;52.270;20.978;2022-09-16T14:53:59;17.30;70.30
23532;DHT22;11943;52.270;20.978;2022-09-16T14:56:25;17.20;72.70
23532;DHT22;11943;52.270;20.978;2022-09-16T14:58:51;17.20;73.40
23532;DHT22;11943;52.270;20.978;2022-09-16T15:01:24;17.20;72.80
23532;DHT22;11943;52.270;20.978;2022-09-16T15:03:59;17.10;73.80
23532;DHT22;11943;52.270;20.978;2022-09-16T15:06:26;16.90;75.60
23532;DHT22;11943;52.270;20.978;2022-09-16T15:09:03;16.90;77.20
23532;DHT22;11943;52.270;20.978;2022-09-16T15:11:33;16.80;77.20
23532;DHT22;11943;52.270;20.978;2022-09-16T15:14:00;16.70;77.50
23532;DHT22;11943;52.270;20.978;2022-09-16T15:16:25;16.50;79.00
23532;DHT22;11943;52.270;20.978;2022-09-16T15:21:20;16.40;80.00
23532;DHT22;11943;52.270;20.978;2022-09-16T15:23:47;16.40;80.30
23532;DHT22;11943;52.270;20.978;2022-09-16T15:26:15;16.30;81.20
23532;DHT22;11943;52.270;20.978;2022-09-16T15:31:25;16.40;83.40
23532;DHT22;11943;52.270;20.978;2022-09-16T15:33:51;16.40;82.90
23532;DHT22;11943;52.270;20.978;2022-09-16T15:36:33;16.50;81.10
23532;DHT22;11943;52.270;20.978;2022-09-16T15:38:58;16.60;81.00
23532;DHT22;11943;52.270;20.978;2022-09-16T15:41:24;16.60;82.50
23532;DHT22;11943;52.270;20.978;2022-09-16T15:43:49;16.50;81.80
23532;DHT22;11943;52.270;20.978;2022-09-16T15:46:19;16.40;83.40
23532;DHT22;11943;52.270;20.978;2022-09-16T15:48:57;16.30;84.50
23532;DHT22;11943;52.270;20.978;2022-09-16T15:51:25;16.30;82.90
23532;DHT22;11943;52.270;20.978;2022-09-16T15:53:52;16.30;83.30
23532;DHT22;11943;52.270;20.978;2022-09-16T15:56:27;16.30;84.40
23532;DHT22;11943;52.270;20.978;2022-09-16T15:58:59;16.20;83.10
23532;DHT22;11943;52.270;20.978;2022-09-16T16:03:53;16.10;85.10
23532;DHT22;11943;52.270;20.978;2022-09-16T16:06:20;16.00;81.70
23532;DHT22;11943;52.270;20.978;2022-09-16T16:08:49;16.00;81.30
23532;DHT22;11943;52.270;20.978;2022-09-16T16:11:16;16.00;81.30
23532;DHT22;11943;52.270;20.978;2022-09-16T16:13:42;15.90;81.60
23532;DHT22;11943;52.270;20.978;2022-09-16T16:16:08;15.80;80.60
23532;DHT22;11943;52.270;20.978;2022-09-16T16:18:34;15.80;80.90
23532;DHT22;11943;52.270;20.978;2022-09-16T16:21:04;15.70;81.00
23532;DHT22;11943;52.270;20.978;2022-09-16T16:23:31;15.60;82.60
23532;DHT22;11943;52.270;20.978;2022-09-16T16:25:57;15.50;84.70
23532;DHT22;11943;52.270;20.978;2022-09-16T16:28:23;15.40;84.50
23532;DHT22;11943;52.270;20.978;2022-09-16T16:30:48;15.30;86.60
23532;DHT22;11943;52.270;20.978;2022-09-16T16:33:14;15.30;87.40
23532;DHT22;11943;52.270;20.978;2022-09-16T16:35:39;15.20;88.10
23532;DHT22;11943;52.270;20.978;2022-09-16T16:38:05;15.10;88.90
23532;DHT22;11943;52.270;20.978;2022-09-16T16:40:30;15.00;90.20
23532;DHT22;11943;52.270;20.978;2022-09-16T16:42:56;15.00;89.50
23532;DHT22;11943;52.270;20.978;2022-09-16T16:45:21;14.90;90.10
23532;DHT22;11943;52.270;20.978;2022-09-16T16:47:47;14.80;90.90
23532;DHT22;11943;52.270;20.978;2022-09-16T16:50:12;14.80;91.40
23532;DHT22;11943;52.270;20.978;2022-09-16T16:52:38;14.70;91.60
23532;DHT22;11943;52.270;20.978;2022-09-16T16:55:04;14.70;91.60
23532;DHT22;11943;52.270;20.978;2022-09-16T16:57:30;14.60;92.10
23532;DHT22;11943;52.270;20.978;2022-09-16T16:59:55;14.50;92.90
23532;DHT22;11943;52.270;20.978;2022-09-16T17:02:21;14.50;93.40
23532;DHT22;11943;52.270;20.978;2022-09-16T17:04:46;14.40;94.60
23532;DHT22;11943;52.270;20.978;2022-09-16T17:07:12;14.30;94.70
23532;DHT22;11943;52.270;20.978;2022-09-16T17:09:37;14.30;95.10
23532;DHT22;11943;52.270;20.978;2022-09-16T17:12:03;14.20;95.30
23532;DHT22;11943;52.270;20.978;2022-09-16T17:14:29;14.10;96.80
23532;DHT22;11943;52.270;20.978;2022-09-16T17:16:55;14.00;97.00
23532;DHT22;11943;52.270;20.978;2022-09-16T17:19:22;14.00;97.80
23532;DHT22;11943;52.270;20.978;2022-09-16T17:21:48;14.00;99.20
23532;DHT22;11943;52.270;20.978;2022-09-16T17:24:18;14.00;99.50
23532;DHT22;11943;52.270;20.978;2022-09-16T17:26:43;14.00;99.60
23532;DHT22;11943;52.270;20.978;2022-09-16T17:29:09;13.90;99.90
23532;DHT22;11943;52.270;20.978;2022-09-16T17:31:35;13.90;99.90
23532;DHT22;11943;52.270;20.978;2022-09-16T17:34:04;14.20;99.90
23532;DHT22;11943;52.270;20.978;2022-09-16T17:36:31;13.90;99.90
23532;DHT22;11943;52.270;20.978;2022-09-16T17:39:01;13.90;99.90
23532;DHT22;11943;52.270;20.978;2022-09-16T17:41:27;13.90;99.90
23532;DHT22;11943;52.270;20.978;2022-09-16T17:43:53;13.80;99.90
23532;DHT22;11943;52.270;20.978;2022-09-16T17:46:18;13.80;99.90
23532;DHT22;11943;52.270;20.978;2022-09-16T17:48:44;13.80;99.90
23532;DHT22;11943;52.270;20.978;2022-09-16T17:51:10;13.80;99.90
23532;DHT22;11943;52.270;20.978;2022-09-16T17:53:36;13.80;99.90
23532;DHT22;11943;52.270;20.978;2022-09-16T17:56:02;13.80;99.90
23532;DHT22;11943;52.270;20.978;2022-09-16T17:58:28;13.80;99.90
23532;DHT22;11943;52.270;20.978;2022-09-16T18:00:54;13.70;99.90
23532;DHT22;11943;52.270;20.978;2022-09-16T18:03:19;13.70;99.90
23532;DHT22;11943;52.270;20.978;2022-09-16T18:05:45;13.60;99.90
23532;DHT22;11943;52.270;20.978;2022-09-16T18:08:11;13.50;99.90
23532;DHT22;11943;52.270;20.978;2022-09-16T18:10:36;13.70;99.90
23532;DHT22;11943;52.270;20.978;2022-09-16T18:13:02;13.60;99.90
23532;DHT22;11943;52.270;20.978;2022-09-16T18:15:28;13.60;99.90
23532;DHT22;11943;52.270;20.978;2022-09-16T18:17:54;13.50;99.90
23532;DHT22;11943;52.270;20.978;2022-09-16T18:20:20;13.50;99.90
23532;DHT22;11943;52.270;20.978;2022-09-16T18:22:45;13.50;99.90
23532;DHT22;11943;52.270;20.978;2022-09-16T18:25:11;13.50;99.90
23532;DHT22;11943;52.270;20.978;2022-09-16T18:27:37;13.50;99.90
23532;DHT22;11943;52.270;20.978;2022-09-16T18:30:02;13.50;99.90
23532;DHT22;11943;52.270;20.978;2022-09-16T18:32:28;13.40;99.90
23532;DHT22;11943;52.270;20.978;2022-09-16T18:34:53;13.40;99.90
23532;DHT22;11943;52.270;20.978;2022-09-16T18:37:19;13.30;99.90